Airfield :
LOGIN :

Register | Disclaimer

   EN    FR    IT 

 










Legend :    VFR   Marginal VFR   IFR   Intensive IFR   Very Intensive IFR
Visi :
Ceiling :
>= 8 km
>= 3000ft
5 to 8 km
1000 to 3000 ft
1500m to 5 km
500 to 1000 ft
800 to 1500m
200 to 500 ft
< 800m
< 200 ft
Symbols :   Thunderstorms  Fog  Heavy snow  Heavy precipitations  Wind > 20 kt
SIGMETs :     Misc.  Thunderstorms  Icing  Turbulence  Mountain Waves  Volcanic Ashes






- Airport Elevation : 407 ft


EGDM - MoD Boscombe Down Amesbury

CURRENT METAR :
  • 301450Z 09005KT 9999 FEW010 SCT050 08/06 Q1024 TEMPO 6000 BR RMK BLU TEMPO WHT

EXPIRED METARs :
  • 301420Z 09006KT 9999 FEW010 SCT050 08/06 Q1024 TEMPO 6000 BR RMK BLU TEMPO WHT
  • 301350Z 09006KT 9999 FEW006 SCT051 08/07 Q1024 TEMPO 6000 RMK BLU TEMPO WHT
  • 301320Z 09007KT 8000 BR FEW006 BKN051 08/07 Q1024 TEMPO 3000 SCT005 RMK BLU TEMPO YLO1
  • 301250Z 10006KT 8000 BR FEW003 BKN052 07/07 Q1025 TEMPO 3000 SCT005 RMK BLU TEMPO YLO1
  • 301220Z 10004KT 6000 BR FEW003 BKN052 07/07 Q1024 NOSIG RMK WHT WHT

TAF AMD TAF EGDM
Valid from the 30 at 14:00 until the 30 at 19:00 UTC


301414Z 3014/3019 08006KT 9999 FEW010
PROB40
TEMPO 3014/3019 3000 BR SCT004
PROB40 3017/3019 0700 FG OVC001



MET'MAP, your aeronautical weather chart ! - Copyright ORBIFLY December 2007 - Disclaimer

ORBIFLY MET'MAP TEAM :

Programming & Development : Alexandra Zaïnal
Original concept : Baudouin d'Aumeries
Technical & hardware support : Manuel Goepfert
Assistance : Marc-Olivier Méhu




SOURCES & CREDITS :

   NOAA